sensor_id;sensor_type;location;lat;lon;timestamp;P1;durP1;ratioP1;P2;durP2;ratioP2
26337;SDS011;14050;50.950;4.460;2023-03-13T00:04:01;25.33;;;5.80;;
26337;SDS011;14050;50.950;4.460;2023-03-13T00:09:03;21.73;;;5.90;;
26337;SDS011;14050;50.950;4.460;2023-03-13T00:14:04;28.08;;;5.90;;
26337;SDS011;14050;50.950;4.460;2023-03-13T00:19:05;26.70;;;6.22;;
26337;SDS011;14050;50.950;4.460;2023-03-13T00:24:06;24.13;;;6.15;;
26337;SDS011;14050;50.950;4.460;2023-03-13T00:29:07;20.20;;;5.82;;
26337;SDS011;14050;50.950;4.460;2023-03-13T00:34:07;18.80;;;4.80;;
26337;SDS011;14050;50.950;4.460;2023-03-13T00:39:08;20.23;;;5.20;;
26337;SDS011;14050;50.950;4.460;2023-03-13T00:44:08;29.30;;;6.07;;
26337;SDS011;14050;50.950;4.460;2023-03-13T00:49:09;19.80;;;6.13;;
26337;SDS011;14050;50.950;4.460;2023-03-13T00:54:09;19.55;;;5.78;;
26337;SDS011;14050;50.950;4.460;2023-03-13T00:59:09;15.55;;;5.22;;
26337;SDS011;14050;50.950;4.460;2023-03-13T01:04:10;16.10;;;5.60;;
26337;SDS011;14050;50.950;4.460;2023-03-13T01:09:11;14.23;;;4.95;;
26337;SDS011;14050;50.950;4.460;2023-03-13T01:14:16;16.80;;;5.93;;
26337;SDS011;14050;50.950;4.460;2023-03-13T01:19:18;15.18;;;5.57;;
26337;SDS011;14050;50.950;4.460;2023-03-13T01:24:18;16.35;;;6.47;;
26337;SDS011;14050;50.950;4.460;2023-03-13T01:29:19;14.30;;;7.20;;
26337;SDS011;14050;50.950;4.460;2023-03-13T01:34:19;17.52;;;8.18;;
26337;SDS011;14050;50.950;4.460;2023-03-13T01:39:19;19.13;;;8.30;;
26337;SDS011;14050;50.950;4.460;2023-03-13T01:44:24;18.10;;;8.03;;
26337;SDS011;14050;50.950;4.460;2023-03-13T01:49:26;13.77;;;7.47;;
26337;SDS011;14050;50.950;4.460;2023-03-13T01:54:39;17.65;;;7.60;;
26337;SDS011;14050;50.950;4.460;2023-03-13T01:59:44;16.33;;;8.73;;
26337;SDS011;14050;50.950;4.460;2023-03-13T02:04:47;15.50;;;7.80;;
26337;SDS011;14050;50.950;4.460;2023-03-13T02:09:50;20.17;;;6.85;;
26337;SDS011;14050;50.950;4.460;2023-03-13T02:14:51;12.77;;;7.10;;
26337;SDS011;14050;50.950;4.460;2023-03-13T02:19:52;15.07;;;7.05;;
26337;SDS011;14050;50.950;4.460;2023-03-13T02:24:57;13.65;;;7.60;;
26337;SDS011;14050;50.950;4.460;2023-03-13T02:30:03;10.25;;;6.35;;
26337;SDS011;14050;50.950;4.460;2023-03-13T02:35:08;8.55;;;5.43;;
26337;SDS011;14050;50.950;4.460;2023-03-13T02:40:09;9.75;;;5.57;;
26337;SDS011;14050;50.950;4.460;2023-03-13T02:45:14;11.05;;;6.10;;
26337;SDS011;14050;50.950;4.460;2023-03-13T02:50:15;10.63;;;5.30;;
26337;SDS011;14050;50.950;4.460;2023-03-13T02:55:27;9.52;;;5.20;;
26337;SDS011;14050;50.950;4.460;2023-03-13T03:00:28;12.80;;;5.40;;
26337;SDS011;14050;50.950;4.460;2023-03-13T03:05:28;7.68;;;4.80;;
26337;SDS011;14050;50.950;4.460;2023-03-13T03:10:29;7.75;;;4.50;;
26337;SDS011;14050;50.950;4.460;2023-03-13T03:15:29;7.95;;;4.50;;
26337;SDS011;14050;50.950;4.460;2023-03-13T03:20:29;8.97;;;4.57;;
26337;SDS011;14050;50.950;4.460;2023-03-13T03:25:30;5.43;;;3.88;;
26337;SDS011;14050;50.950;4.460;2023-03-13T03:30:30;8.40;;;3.85;;
26337;SDS011;14050;50.950;4.460;2023-03-13T03:35:30;8.63;;;4.80;;
26337;SDS011;14050;50.950;4.460;2023-03-13T03:40:31;9.37;;;4.40;;
26337;SDS011;14050;50.950;4.460;2023-03-13T03:45:31;7.13;;;3.50;;
26337;SDS011;14050;50.950;4.460;2023-03-13T03:50:31;7.87;;;3.37;;
26337;SDS011;14050;50.950;4.460;2023-03-13T03:55:32;7.40;;;3.33;;
26337;SDS011;14050;50.950;4.460;2023-03-13T04:00:32;10.82;;;4.13;;
26337;SDS011;14050;50.950;4.460;2023-03-13T04:05:32;8.68;;;3.78;;
26337;SDS011;14050;50.950;4.460;2023-03-13T04:10:33;8.07;;;3.50;;
26337;SDS011;14050;50.950;4.460;2023-03-13T04:15:34;6.67;;;3.13;;
26337;SDS011;14050;50.950;4.460;2023-03-13T04:20:34;9.53;;;3.37;;
26337;SDS011;14050;50.950;4.460;2023-03-13T04:25:34;11.10;;;3.30;;
26337;SDS011;14050;50.950;4.460;2023-03-13T04:30:35;7.95;;;3.70;;
26337;SDS011;14050;50.950;4.460;2023-03-13T04:35:35;12.15;;;3.20;;
26337;SDS011;14050;50.950;4.460;2023-03-13T04:40:35;11.43;;;3.30;;
26337;SDS011;14050;50.950;4.460;2023-03-13T04:45:36;11.47;;;3.27;;
26337;SDS011;14050;50.950;4.460;2023-03-13T04:50:36;7.63;;;3.10;;
26337;SDS011;14050;50.950;4.460;2023-03-13T04:55:36;9.27;;;2.87;;
26337;SDS011;14050;50.950;4.460;2023-03-13T05:00:38;14.40;;;3.37;;
26337;SDS011;14050;50.950;4.460;2023-03-13T05:05:38;13.20;;;3.05;;
26337;SDS011;14050;50.950;4.460;2023-03-13T05:10:40;13.57;;;3.40;;
26337;SDS011;14050;50.950;4.460;2023-03-13T05:15:41;13.68;;;3.67;;
26337;SDS011;14050;50.950;4.460;2023-03-13T05:20:41;15.75;;;3.42;;
26337;SDS011;14050;50.950;4.460;2023-03-13T05:25:41;9.63;;;3.13;;
26337;SDS011;14050;50.950;4.460;2023-03-13T05:30:41;8.33;;;3.13;;
26337;SDS011;14050;50.950;4.460;2023-03-13T05:35:42;14.27;;;3.67;;
26337;SDS011;14050;50.950;4.460;2023-03-13T05:40:42;15.97;;;3.63;;
26337;SDS011;14050;50.950;4.460;2023-03-13T05:45:42;8.77;;;3.50;;
26337;SDS011;14050;50.950;4.460;2023-03-13T05:50:43;10.40;;;3.40;;
26337;SDS011;14050;50.950;4.460;2023-03-13T05:55:43;12.07;;;3.25;;
26337;SDS011;14050;50.950;4.460;2023-03-13T06:00:43;12.37;;;3.53;;
26337;SDS011;14050;50.950;4.460;2023-03-13T06:05:44;10.73;;;3.20;;
26337;SDS011;14050;50.950;4.460;2023-03-13T06:10:44;9.57;;;3.20;;
26337;SDS011;14050;50.950;4.460;2023-03-13T06:15:54;12.40;;;3.85;;
26337;SDS011;14050;50.950;4.460;2023-03-13T06:20:59;11.80;;;3.20;;
26337;SDS011;14050;50.950;4.460;2023-03-13T06:26:00;13.65;;;4.50;;
26337;SDS011;14050;50.950;4.460;2023-03-13T06:31:01;14.95;;;3.95;;
26337;SDS011;14050;50.950;4.460;2023-03-13T06:36:02;9.85;;;3.63;;
26337;SDS011;14050;50.950;4.460;2023-03-13T06:41:03;15.90;;;3.67;;
26337;SDS011;14050;50.950;4.460;2023-03-13T06:46:03;15.05;;;4.18;;
26337;SDS011;14050;50.950;4.460;2023-03-13T06:51:04;12.18;;;3.33;;
26337;SDS011;14050;50.950;4.460;2023-03-13T06:56:05;14.88;;;3.88;;
26337;SDS011;14050;50.950;4.460;2023-03-13T07:01:06;12.38;;;3.33;;
26337;SDS011;14050;50.950;4.460;2023-03-13T07:06:07;13.10;;;3.28;;
26337;SDS011;14050;50.950;4.460;2023-03-13T07:11:08;16.48;;;3.58;;
26337;SDS011;14050;50.950;4.460;2023-03-13T07:16:10;15.32;;;4.05;;
26337;SDS011;14050;50.950;4.460;2023-03-13T07:21:11;11.93;;;3.30;;
26337;SDS011;14050;50.950;4.460;2023-03-13T07:26:12;15.43;;;4.10;;
26337;SDS011;14050;50.950;4.460;2023-03-13T07:31:17;15.35;;;3.45;;
26337;SDS011;14050;50.950;4.460;2023-03-13T07:36:18;12.27;;;3.22;;
26337;SDS011;14050;50.950;4.460;2023-03-13T07:41:18;16.08;;;3.75;;
26337;SDS011;14050;50.950;4.460;2023-03-13T07:46:19;19.35;;;3.85;;
26337;SDS011;14050;50.950;4.460;2023-03-13T07:51:23;13.73;;;3.40;;
26337;SDS011;14050;50.950;4.460;2023-03-13T07:56:24;14.60;;;4.05;;
26337;SDS011;14050;50.950;4.460;2023-03-13T08:01:26;14.80;;;3.57;;
26337;SDS011;14050;50.950;4.460;2023-03-13T08:06:28;14.40;;;3.47;;
26337;SDS011;14050;50.950;4.460;2023-03-13T08:11:29;14.82;;;3.60;;
26337;SDS011;14050;50.950;4.460;2023-03-13T08:16:31;10.53;;;3.27;;
26337;SDS011;14050;50.950;4.460;2023-03-13T08:21:33;13.25;;;3.55;;
26337;SDS011;14050;50.950;4.460;2023-03-13T08:26:35;9.45;;;3.30;;
26337;SDS011;14050;50.950;4.460;2023-03-13T08:31:56;14.85;;;3.65;;
26337;SDS011;14050;50.950;4.460;2023-03-13T08:36:56;10.98;;;3.10;;
26337;SDS011;14050;50.950;4.460;2023-03-13T08:41:57;9.30;;;2.80;;
26337;SDS011;14050;50.950;4.460;2023-03-13T08:46:57;10.10;;;2.83;;
26337;SDS011;14050;50.950;4.460;2023-03-13T08:51:59;10.77;;;3.38;;
26337;SDS011;14050;50.950;4.460;2023-03-13T08:57:00;14.30;;;3.40;;
26337;SDS011;14050;50.950;4.460;2023-03-13T09:02:00;7.57;;;2.67;;
26337;SDS011;14050;50.950;4.460;2023-03-13T09:07:02;9.88;;;3.58;;
26337;SDS011;14050;50.950;4.460;2023-03-13T09:12:02;10.27;;;3.17;;
26337;SDS011;14050;50.950;4.460;2023-03-13T09:17:03;6.65;;;2.25;;
26337;SDS011;14050;50.950;4.460;2023-03-13T09:22:03;11.65;;;2.85;;
26337;SDS011;14050;50.950;4.460;2023-03-13T09:27:04;9.67;;;2.73;;
26337;SDS011;14050;50.950;4.460;2023-03-13T09:32:04;6.63;;;2.15;;
26337;SDS011;14050;50.950;4.460;2023-03-13T09:37:04;7.55;;;2.20;;
26337;SDS011;14050;50.950;4.460;2023-03-13T09:42:52;5.78;;;2.30;;
26337;SDS011;14050;50.950;4.460;2023-03-13T09:47:30;8.18;;;2.83;;
26337;SDS011;14050;50.950;4.460;2023-03-13T09:52:38;6.10;;;2.00;;
26337;SDS011;14050;50.950;4.460;2023-03-13T09:57:50;4.38;;;2.30;;
26337;SDS011;14050;50.950;4.460;2023-03-13T10:02:59;6.38;;;2.10;;
26337;SDS011;14050;50.950;4.460;2023-03-13T10:08:22;6.03;;;2.05;;
26337;SDS011;14050;50.950;4.460;2023-03-13T10:13:22;7.65;;;2.10;;
26337;SDS011;14050;50.950;4.460;2023-03-13T10:18:25;9.30;;;2.28;;
26337;SDS011;14050;50.950;4.460;2023-03-13T10:23:39;7.57;;;2.25;;
26337;SDS011;14050;50.950;4.460;2023-03-13T10:28:41;8.93;;;2.17;;
26337;SDS011;14050;50.950;4.460;2023-03-13T10:33:41;9.20;;;1.90;;
26337;SDS011;14050;50.950;4.460;2023-03-13T10:43:49;8.60;;;1.90;;
26337;SDS011;14050;50.950;4.460;2023-03-13T10:48:50;8.52;;;1.75;;
26337;SDS011;14050;50.950;4.460;2023-03-13T10:53:52;3.75;;;1.60;;
26337;SDS011;14050;50.950;4.460;2023-03-13T10:58:52;5.53;;;1.73;;
26337;SDS011;14050;50.950;4.460;2023-03-13T11:03:54;19.20;;;2.20;;
26337;SDS011;14050;50.950;4.460;2023-03-13T11:14:08;6.20;;;2.20;;
26337;SDS011;14050;50.950;4.460;2023-03-13T11:19:13;8.05;;;1.60;;
26337;SDS011;14050;50.950;4.460;2023-03-13T11:24:53;8.27;;;1.83;;
26337;SDS011;14050;50.950;4.460;2023-03-13T11:34:50;9.68;;;2.33;;
26337;SDS011;14050;50.950;4.460;2023-03-13T11:50:34;8.25;;;1.60;;
26337;SDS011;14050;50.950;4.460;2023-03-13T12:00:36;26.65;;;2.20;;
26337;SDS011;14050;50.950;4.460;2023-03-13T12:05:41;11.63;;;1.80;;
26337;SDS011;14050;50.950;4.460;2023-03-13T12:10:43;4.45;;;1.50;;
26337;SDS011;14050;50.950;4.460;2023-03-13T12:15:46;5.63;;;1.35;;
26337;SDS011;14050;50.950;4.460;2023-03-13T12:20:53;6.18;;;1.40;;
26337;SDS011;14050;50.950;4.460;2023-03-13T12:26:17;8.27;;;1.93;;
26337;SDS011;14050;50.950;4.460;2023-03-13T12:36:37;4.18;;;1.50;;
26337;SDS011;14050;50.950;4.460;2023-03-13T12:41:41;4.63;;;1.23;;
26337;SDS011;14050;50.950;4.460;2023-03-13T12:46:46;3.50;;;1.23;;
26337;SDS011;14050;50.950;4.460;2023-03-13T12:57:11;5.70;;;1.10;;
26337;SDS011;14050;50.950;4.460;2023-03-13T13:02:20;6.72;;;1.65;;
26337;SDS011;14050;50.950;4.460;2023-03-13T13:07:23;5.05;;;1.33;;
26337;SDS011;14050;50.950;4.460;2023-03-13T13:12:25;4.90;;;1.60;;
26337;SDS011;14050;50.950;4.460;2023-03-13T13:32:37;6.88;;;1.80;;
26337;SDS011;14050;50.950;4.460;2023-03-13T13:37:39;6.68;;;1.88;;
26337;SDS011;14050;50.950;4.460;2023-03-13T13:42:49;7.33;;;1.80;;
26337;SDS011;14050;50.950;4.460;2023-03-13T13:47:50;5.07;;;1.45;;
26337;SDS011;14050;50.950;4.460;2023-03-13T13:53:30;6.72;;;1.60;;
26337;SDS011;14050;50.950;4.460;2023-03-13T13:58:30;5.88;;;1.85;;
26337;SDS011;14050;50.950;4.460;2023-03-13T14:03:31;5.90;;;1.63;;
26337;SDS011;14050;50.950;4.460;2023-03-13T14:08:32;10.15;;;1.63;;
26337;SDS011;14050;50.950;4.460;2023-03-13T14:13:36;7.97;;;2.17;;
26337;SDS011;14050;50.950;4.460;2023-03-13T14:18:36;6.18;;;1.60;;
26337;SDS011;14050;50.950;4.460;2023-03-13T14:23:42;5.75;;;1.70;;
26337;SDS011;14050;50.950;4.460;2023-03-13T14:28:46;6.97;;;1.60;;
26337;SDS011;14050;50.950;4.460;2023-03-13T14:33:47;6.68;;;1.90;;
26337;SDS011;14050;50.950;4.460;2023-03-13T14:43:54;13.70;;;2.17;;
26337;SDS011;14050;50.950;4.460;2023-03-13T14:48:54;7.80;;;2.40;;
26337;SDS011;14050;50.950;4.460;2023-03-13T14:53:59;6.10;;;1.60;;
26337;SDS011;14050;50.950;4.460;2023-03-13T15:04:12;10.27;;;2.42;;
26337;SDS011;14050;50.950;4.460;2023-03-13T15:09:13;7.03;;;2.05;;
26337;SDS011;14050;50.950;4.460;2023-03-13T15:14:32;13.68;;;3.40;;
26337;SDS011;14050;50.950;4.460;2023-03-13T15:19:32;7.25;;;2.33;;
26337;SDS011;14050;50.950;4.460;2023-03-13T15:24:32;15.77;;;2.63;;
26337;SDS011;14050;50.950;4.460;2023-03-13T15:29:33;15.13;;;3.00;;
26337;SDS011;14050;50.950;4.460;2023-03-13T15:34:33;7.18;;;2.30;;
26337;SDS011;14050;50.950;4.460;2023-03-13T15:39:34;12.93;;;2.40;;
26337;SDS011;14050;50.950;4.460;2023-03-13T15:44:34;12.67;;;2.27;;
26337;SDS011;14050;50.950;4.460;2023-03-13T15:49:35;8.93;;;2.27;;
26337;SDS011;14050;50.950;4.460;2023-03-13T15:54:35;9.30;;;2.72;;
26337;SDS011;14050;50.950;4.460;2023-03-13T15:59:35;12.20;;;2.53;;
26337;SDS011;14050;50.950;4.460;2023-03-13T16:04:35;11.30;;;2.53;;
26337;SDS011;14050;50.950;4.460;2023-03-13T16:09:36;12.18;;;2.85;;
26337;SDS011;14050;50.950;4.460;2023-03-13T16:14:37;12.93;;;2.50;;
26337;SDS011;14050;50.950;4.460;2023-03-13T16:19:37;11.68;;;2.95;;
26337;SDS011;14050;50.950;4.460;2023-03-13T16:24:38;18.67;;;2.47;;
26337;SDS011;14050;50.950;4.460;2023-03-13T16:29:39;9.75;;;2.72;;
26337;SDS011;14050;50.950;4.460;2023-03-13T16:34:39;8.00;;;2.35;;
26337;SDS011;14050;50.950;4.460;2023-03-13T16:39:39;12.43;;;2.55;;
26337;SDS011;14050;50.950;4.460;2023-03-13T16:44:40;14.38;;;2.60;;
26337;SDS011;14050;50.950;4.460;2023-03-13T16:49:40;14.45;;;2.60;;
26337;SDS011;14050;50.950;4.460;2023-03-13T16:54:41;20.65;;;3.50;;
26337;SDS011;14050;50.950;4.460;2023-03-13T16:59:41;10.70;;;2.60;;
26337;SDS011;14050;50.950;4.460;2023-03-13T17:04:42;19.77;;;3.72;;
26337;SDS011;14050;50.950;4.460;2023-03-13T17:09:42;13.25;;;3.33;;
26337;SDS011;14050;50.950;4.460;2023-03-13T17:14:43;15.63;;;4.23;;
26337;SDS011;14050;50.950;4.460;2023-03-13T17:19:43;14.03;;;2.90;;
26337;SDS011;14050;50.950;4.460;2023-03-13T17:24:43;10.55;;;3.08;;
26337;SDS011;14050;50.950;4.460;2023-03-13T17:29:45;12.27;;;2.65;;
26337;SDS011;14050;50.950;4.460;2023-03-13T17:34:45;21.30;;;3.42;;
26337;SDS011;14050;50.950;4.460;2023-03-13T17:39:46;14.70;;;3.50;;
26337;SDS011;14050;50.950;4.460;2023-03-13T17:44:46;14.50;;;3.22;;
26337;SDS011;14050;50.950;4.460;2023-03-13T17:49:47;13.30;;;2.93;;
26337;SDS011;14050;50.950;4.460;2023-03-13T17:54:47;13.17;;;2.47;;
26337;SDS011;14050;50.950;4.460;2023-03-13T17:59:47;19.38;;;3.08;;
26337;SDS011;14050;50.950;4.460;2023-03-13T18:04:51;18.13;;;3.35;;
26337;SDS011;14050;50.950;4.460;2023-03-13T18:09:52;13.02;;;3.60;;
26337;SDS011;14050;50.950;4.460;2023-03-13T18:14:52;17.08;;;2.97;;
26337;SDS011;14050;50.950;4.460;2023-03-13T18:19:53;20.80;;;4.25;;
26337;SDS011;14050;50.950;4.460;2023-03-13T18:24:53;13.30;;;2.95;;
26337;SDS011;14050;50.950;4.460;2023-03-13T18:29:53;12.63;;;3.08;;
26337;SDS011;14050;50.950;4.460;2023-03-13T18:34:53;20.58;;;4.43;;
26337;SDS011;14050;50.950;4.460;2023-03-13T18:39:54;16.38;;;3.92;;
26337;SDS011;14050;50.950;4.460;2023-03-13T18:44:55;12.73;;;3.58;;
26337;SDS011;14050;50.950;4.460;2023-03-13T18:49:55;11.63;;;3.10;;
26337;SDS011;14050;50.950;4.460;2023-03-13T18:54:56;14.85;;;3.42;;
26337;SDS011;14050;50.950;4.460;2023-03-13T18:59:57;12.38;;;3.58;;
26337;SDS011;14050;50.950;4.460;2023-03-13T19:04:57;13.85;;;3.35;;
26337;SDS011;14050;50.950;4.460;2023-03-13T19:09:57;10.18;;;3.17;;
26337;SDS011;14050;50.950;4.460;2023-03-13T19:14:58;10.23;;;3.20;;
26337;SDS011;14050;50.950;4.460;2023-03-13T19:19:58;12.37;;;4.10;;
26337;SDS011;14050;50.950;4.460;2023-03-13T19:24:58;12.98;;;2.83;;
26337;SDS011;14050;50.950;4.460;2023-03-13T19:29:59;15.32;;;3.42;;
26337;SDS011;14050;50.950;4.460;2023-03-13T19:34:59;12.00;;;3.50;;
26337;SDS011;14050;50.950;4.460;2023-03-13T19:39:59;9.40;;;3.25;;
26337;SDS011;14050;50.950;4.460;2023-03-13T19:44:59;12.67;;;3.87;;
26337;SDS011;14050;50.950;4.460;2023-03-13T19:50:00;15.20;;;3.80;;
26337;SDS011;14050;50.950;4.460;2023-03-13T19:55:00;14.13;;;3.50;;
26337;SDS011;14050;50.950;4.460;2023-03-13T20:00:03;11.15;;;2.97;;
26337;SDS011;14050;50.950;4.460;2023-03-13T20:05:04;11.32;;;2.95;;
26337;SDS011;14050;50.950;4.460;2023-03-13T20:10:05;11.90;;;3.15;;
26337;SDS011;14050;50.950;4.460;2023-03-13T20:15:05;11.07;;;2.55;;
26337;SDS011;14050;50.950;4.460;2023-03-13T20:20:06;8.35;;;3.10;;
26337;SDS011;14050;50.950;4.460;2023-03-13T20:25:07;11.57;;;3.75;;
26337;SDS011;14050;50.950;4.460;2023-03-13T20:30:07;10.60;;;3.13;;
26337;SDS011;14050;50.950;4.460;2023-03-13T20:35:08;13.95;;;3.20;;
26337;SDS011;14050;50.950;4.460;2023-03-13T20:40:12;14.07;;;3.72;;
26337;SDS011;14050;50.950;4.460;2023-03-13T20:45:13;11.23;;;3.53;;
26337;SDS011;14050;50.950;4.460;2023-03-13T20:50:13;16.00;;;3.50;;
26337;SDS011;14050;50.950;4.460;2023-03-13T20:55:14;11.98;;;3.60;;
26337;SDS011;14050;50.950;4.460;2023-03-13T21:00:14;10.75;;;3.03;;
26337;SDS011;14050;50.950;4.460;2023-03-13T21:05:15;7.68;;;3.05;;
26337;SDS011;14050;50.950;4.460;2023-03-13T21:10:15;10.82;;;3.50;;
26337;SDS011;14050;50.950;4.460;2023-03-13T21:15:17;10.93;;;2.75;;
26337;SDS011;14050;50.950;4.460;2023-03-13T21:20:17;12.15;;;3.03;;
26337;SDS011;14050;50.950;4.460;2023-03-13T21:25:17;9.70;;;2.80;;
26337;SDS011;14050;50.950;4.460;2023-03-13T21:30:19;14.68;;;3.08;;
26337;SDS011;14050;50.950;4.460;2023-03-13T21:35:20;12.23;;;3.40;;
26337;SDS011;14050;50.950;4.460;2023-03-13T21:40:20;13.60;;;3.17;;
26337;SDS011;14050;50.950;4.460;2023-03-13T21:45:20;12.90;;;3.10;;
26337;SDS011;14050;50.950;4.460;2023-03-13T21:50:21;8.82;;;3.03;;
26337;SDS011;14050;50.950;4.460;2023-03-13T21:55:23;10.05;;;2.83;;
26337;SDS011;14050;50.950;4.460;2023-03-13T22:00:24;22.85;;;3.65;;
26337;SDS011;14050;50.950;4.460;2023-03-13T22:05:24;19.90;;;3.88;;
26337;SDS011;14050;50.950;4.460;2023-03-13T22:10:24;11.07;;;3.10;;
26337;SDS011;14050;50.950;4.460;2023-03-13T22:15:25;16.67;;;3.45;;
26337;SDS011;14050;50.950;4.460;2023-03-13T22:20:25;24.52;;;3.20;;
26337;SDS011;14050;50.950;4.460;2023-03-13T22:25:25;15.50;;;2.78;;
26337;SDS011;14050;50.950;4.460;2023-03-13T22:30:27;7.82;;;1.80;;
26337;SDS011;14050;50.950;4.460;2023-03-13T22:35:27;9.23;;;2.35;;
26337;SDS011;14050;50.950;4.460;2023-03-13T22:40:27;9.77;;;1.70;;
26337;SDS011;14050;50.950;4.460;2023-03-13T22:45:28;7.60;;;1.83;;
26337;SDS011;14050;50.950;4.460;2023-03-13T22:50:29;10.50;;;2.33;;
26337;SDS011;14050;50.950;4.460;2023-03-13T22:55:30;10.55;;;2.50;;
26337;SDS011;14050;50.950;4.460;2023-03-13T23:00:31;13.95;;;3.08;;
26337;SDS011;14050;50.950;4.460;2023-03-13T23:05:34;13.63;;;2.47;;
26337;SDS011;14050;50.950;4.460;2023-03-13T23:10:35;7.63;;;1.88;;
26337;SDS011;14050;50.950;4.460;2023-03-13T23:15:36;7.82;;;2.10;;
26337;SDS011;14050;50.950;4.460;2023-03-13T23:20:37;8.25;;;1.50;;
26337;SDS011;14050;50.950;4.460;2023-03-13T23:25:37;5.85;;;1.75;;
26337;SDS011;14050;50.950;4.460;2023-03-13T23:30:38;8.80;;;1.53;;
26337;SDS011;14050;50.950;4.460;2023-03-13T23:35:38;8.40;;;1.50;;
26337;SDS011;14050;50.950;4.460;2023-03-13T23:40:38;7.75;;;1.42;;
26337;SDS011;14050;50.950;4.460;2023-03-13T23:45:39;8.43;;;1.93;;
26337;SDS011;14050;50.950;4.460;2023-03-13T23:50:39;8.10;;;1.80;;
26337;SDS011;14050;50.950;4.460;2023-03-13T23:55:39;9.23;;;1.70;;
